sensor_id;sensor_type;location;lat;lon;timestamp;pressure;altitude;pressure_sealevel;temperature;humidity
13593;BME280;6867;50.998;4.250;2023-03-04T00:02:14;102179.22;;;8.09;57.37
13593;BME280;6867;50.998;4.250;2023-03-04T00:04:40;102173.63;;;8.20;56.62
13593;BME280;6867;50.998;4.250;2023-03-04T00:07:07;102178.66;;;8.23;56.60
13593;BME280;6867;50.998;4.250;2023-03-04T00:09:35;102172.84;;;8.28;56.68
13593;BME280;6867;50.998;4.250;2023-03-04T00:12:02;102171.00;;;8.29;56.53
13593;BME280;6867;50.998;4.250;2023-03-04T00:14:29;102174.34;;;8.31;56.81
13593;BME280;6867;50.998;4.250;2023-03-04T00:16:56;102183.50;;;8.20;56.76
13593;BME280;6867;50.998;4.250;2023-03-04T00:19:22;102189.44;;;8.14;56.74
13593;BME280;6867;50.998;4.250;2023-03-04T00:21:49;102193.97;;;8.13;56.89
13593;BME280;6867;50.998;4.250;2023-03-04T00:24:16;102201.34;;;8.11;56.91
13593;BME280;6867;50.998;4.250;2023-03-04T00:26:44;102214.91;;;8.18;57.78
13593;BME280;6867;50.998;4.250;2023-03-04T00:29:11;102206.53;;;8.13;58.07
13593;BME280;6867;50.998;4.250;2023-03-04T00:31:38;102223.88;;;8.09;58.39
13593;BME280;6867;50.998;4.250;2023-03-04T00:34:04;102220.50;;;8.24;57.44
13593;BME280;6867;50.998;4.250;2023-03-04T00:36:31;102227.34;;;8.27;57.90
13593;BME280;6867;50.998;4.250;2023-03-04T00:38:58;102227.28;;;8.19;58.65
13593;BME280;6867;50.998;4.250;2023-03-04T00:41:24;102234.66;;;8.17;58.40
13593;BME280;6867;50.998;4.250;2023-03-04T00:43:52;102267.06;;;8.14;58.84
13593;BME280;6867;50.998;4.250;2023-03-04T00:46:19;102250.34;;;8.12;58.74
13593;BME280;6867;50.998;4.250;2023-03-04T00:48:46;102235.41;;;8.09;58.82
13593;BME280;6867;50.998;4.250;2023-03-04T00:51:12;102258.75;;;8.17;59.07
13593;BME280;6867;50.998;4.250;2023-03-04T00:53:39;102265.03;;;8.08;59.10
13593;BME280;6867;50.998;4.250;2023-03-04T00:56:06;102274.19;;;8.05;59.60
13593;BME280;6867;50.998;4.250;2023-03-04T00:58:33;102267.84;;;8.06;59.08
13593;BME280;6867;50.998;4.250;2023-03-04T01:01:01;102288.78;;;8.11;59.48
13593;BME280;6867;50.998;4.250;2023-03-04T01:03:27;102289.59;;;8.03;59.48
13593;BME280;6867;50.998;4.250;2023-03-04T01:05:57;102290.78;;;8.09;60.06
13593;BME280;6867;50.998;4.250;2023-03-04T01:08:24;102286.44;;;8.08;60.17
13593;BME280;6867;50.998;4.250;2023-03-04T01:10:51;102280.31;;;7.97;59.97
13593;BME280;6867;50.998;4.250;2023-03-04T01:13:18;102274.38;;;8.04;59.86
13593;BME280;6867;50.998;4.250;2023-03-04T01:15:44;102267.16;;;8.04;58.91
13593;BME280;6867;50.998;4.250;2023-03-04T01:18:12;102265.03;;;8.08;59.62
13593;BME280;6867;50.998;4.250;2023-03-04T01:20:39;102258.69;;;8.09;59.41
13593;BME280;6867;50.998;4.250;2023-03-04T01:23:06;102270.22;;;8.09;59.39
13593;BME280;6867;50.998;4.250;2023-03-04T01:25:32;102263.03;;;8.10;59.72
13593;BME280;6867;50.998;4.250;2023-03-04T01:27:59;102263.03;;;8.10;59.57
13593;BME280;6867;50.998;4.250;2023-03-04T01:30:27;102262.19;;;8.09;59.52
13593;BME280;6867;50.998;4.250;2023-03-04T01:32:54;102262.66;;;8.05;59.75
13593;BME280;6867;50.998;4.250;2023-03-04T01:35:22;102272.91;;;8.09;60.23
13593;BME280;6867;50.998;4.250;2023-03-04T01:37:49;102269.84;;;8.04;60.21
13593;BME280;6867;50.998;4.250;2023-03-04T01:40:16;102274.38;;;8.04;60.02
13593;BME280;6867;50.998;4.250;2023-03-04T01:42:43;102272.53;;;8.04;60.51
13593;BME280;6867;50.998;4.250;2023-03-04T01:45:12;102267.63;;;7.99;59.89
13593;BME280;6867;50.998;4.250;2023-03-04T01:47:39;102268.22;;;7.93;60.13
13593;BME280;6867;50.998;4.250;2023-03-04T01:50:16;102266.25;;;7.95;60.50
13593;BME280;6867;50.998;4.250;2023-03-04T01:52:46;102262.75;;;7.95;60.92
13593;BME280;6867;50.998;4.250;2023-03-04T01:55:15;102259.59;;;7.99;61.03
13593;BME280;6867;50.998;4.250;2023-03-04T01:57:43;102257.22;;;7.96;60.71
13593;BME280;6867;50.998;4.250;2023-03-04T02:00:17;102256.94;;;7.99;60.87
13593;BME280;6867;50.998;4.250;2023-03-04T02:02:45;102247.66;;;7.94;61.06
13593;BME280;6867;50.998;4.250;2023-03-04T02:05:12;102248.06;;;7.99;60.94
13593;BME280;6867;50.998;4.250;2023-03-04T02:07:39;102242.19;;;7.95;60.61
13593;BME280;6867;50.998;4.250;2023-03-04T02:10:10;102247.91;;;8.01;60.58
13593;BME280;6867;50.998;4.250;2023-03-04T02:12:38;102243.56;;;7.99;60.42
13593;BME280;6867;50.998;4.250;2023-03-04T02:15:06;102229.16;;;8.01;60.67
13593;BME280;6867;50.998;4.250;2023-03-04T02:17:33;102214.06;;;7.91;60.70
13593;BME280;6867;50.998;4.250;2023-03-04T02:20:06;102216.09;;;7.97;61.06
13593;BME280;6867;50.998;4.250;2023-03-04T02:22:42;102212.09;;;8.02;60.47
13593;BME280;6867;50.998;4.250;2023-03-04T02:25:17;102196.81;;;7.94;60.44
13593;BME280;6867;50.998;4.250;2023-03-04T02:27:48;102205.66;;;7.86;60.90
13593;BME280;6867;50.998;4.250;2023-03-04T02:30:16;102204.75;;;7.78;60.56
13593;BME280;6867;50.998;4.250;2023-03-04T02:32:43;102217.19;;;7.87;60.52
13593;BME280;6867;50.998;4.250;2023-03-04T02:35:14;102202.19;;;7.94;60.78
13593;BME280;6867;50.998;4.250;2023-03-04T02:37:42;102183.78;;;7.91;60.66
13593;BME280;6867;50.998;4.250;2023-03-04T02:40:13;102179.19;;;7.83;60.13
13593;BME280;6867;50.998;4.250;2023-03-04T02:42:43;102185.34;;;8.02;60.47
13593;BME280;6867;50.998;4.250;2023-03-04T02:45:40;102171.00;;;8.03;60.17
13593;BME280;6867;50.998;4.250;2023-03-04T02:48:07;102162.91;;;7.94;60.20
13593;BME280;6867;50.998;4.250;2023-03-04T02:50:37;102161.63;;;7.81;60.86
13593;BME280;6867;50.998;4.250;2023-03-04T02:53:06;102162.22;;;7.92;60.33
13593;BME280;6867;50.998;4.250;2023-03-04T02:55:32;102169.16;;;7.85;60.57
13593;BME280;6867;50.998;4.250;2023-03-04T02:57:59;102166.56;;;7.93;60.11
13593;BME280;6867;50.998;4.250;2023-03-04T03:00:26;102187.44;;;7.90;60.86
13593;BME280;6867;50.998;4.250;2023-03-04T03:02:55;102190.50;;;7.95;61.06
13593;BME280;6867;50.998;4.250;2023-03-04T03:05:23;102191.34;;;7.95;60.87
13593;BME280;6867;50.998;4.250;2023-03-04T03:07:51;102192.72;;;7.99;60.80
13593;BME280;6867;50.998;4.250;2023-03-04T03:10:18;102191.09;;;7.89;61.29
13593;BME280;6867;50.998;4.250;2023-03-04T03:12:45;102188.81;;;7.94;61.02
13593;BME280;6867;50.998;4.250;2023-03-04T03:15:12;102202.03;;;7.95;61.14
13593;BME280;6867;50.998;4.250;2023-03-04T03:17:39;102206.03;;;7.91;61.81
13593;BME280;6867;50.998;4.250;2023-03-04T03:20:08;102217.25;;;7.95;61.72
13593;BME280;6867;50.998;4.250;2023-03-04T03:22:36;102215.06;;;7.90;62.06
13593;BME280;6867;50.998;4.250;2023-03-04T03:25:03;102229.50;;;7.80;61.87
13593;BME280;6867;50.998;4.250;2023-03-04T03:27:30;102229.03;;;7.84;61.79
13593;BME280;6867;50.998;4.250;2023-03-04T03:29:57;102233.91;;;7.89;61.97
13593;BME280;6867;50.998;4.250;2023-03-04T03:32:24;102239.28;;;7.89;62.29
13593;BME280;6867;50.998;4.250;2023-03-04T03:34:51;102236.47;;;7.90;62.53
13593;BME280;6867;50.998;4.250;2023-03-04T03:37:19;102238.13;;;7.91;62.44
13593;BME280;6867;50.998;4.250;2023-03-04T03:39:45;102233.44;;;7.93;62.41
13593;BME280;6867;50.998;4.250;2023-03-04T03:42:12;102232.00;;;7.81;62.28
13593;BME280;6867;50.998;4.250;2023-03-04T03:44:39;102228.03;;;7.85;62.14
13593;BME280;6867;50.998;4.250;2023-03-04T03:47:06;102231.53;;;7.86;62.51
13593;BME280;6867;50.998;4.250;2023-03-04T03:49:32;102229.50;;;7.80;62.48
13593;BME280;6867;50.998;4.250;2023-03-04T03:51:59;102226.34;;;7.84;62.33
13593;BME280;6867;50.998;4.250;2023-03-04T03:54:27;102228.25;;;7.92;62.21
13593;BME280;6867;50.998;4.250;2023-03-04T03:56:54;102233.09;;;7.88;62.36
13593;BME280;6867;50.998;4.250;2023-03-04T03:59:21;102236.69;;;7.79;62.86
13593;BME280;6867;50.998;4.250;2023-03-04T04:01:48;102244.72;;;7.79;62.82
13593;BME280;6867;50.998;4.250;2023-03-04T04:04:15;102237.69;;;7.78;62.50
13593;BME280;6867;50.998;4.250;2023-03-04T04:06:41;102250.50;;;7.92;62.84
13593;BME280;6867;50.998;4.250;2023-03-04T04:09:08;102243.13;;;7.86;62.73
13593;BME280;6867;50.998;4.250;2023-03-04T04:11:36;102238.13;;;7.91;62.78
13593;BME280;6867;50.998;4.250;2023-03-04T04:14:03;102233.31;;;7.95;62.52
13593;BME280;6867;50.998;4.250;2023-03-04T04:16:29;102227.50;;;7.99;61.80
13593;BME280;6867;50.998;4.250;2023-03-04T04:18:56;102213.34;;;7.89;61.89
13593;BME280;6867;50.998;4.250;2023-03-04T04:21:23;102221.91;;;7.93;62.15
13593;BME280;6867;50.998;4.250;2023-03-04T04:23:49;102207.69;;;7.92;61.73
13593;BME280;6867;50.998;4.250;2023-03-04T04:26:16;102223.91;;;7.91;62.32
13593;BME280;6867;50.998;4.250;2023-03-04T04:28:44;102236.97;;;7.94;62.65
13593;BME280;6867;50.998;4.250;2023-03-04T04:31:11;102231.25;;;7.89;62.51
13593;BME280;6867;50.998;4.250;2023-03-04T04:33:38;102210.38;;;7.92;61.89
13593;BME280;6867;50.998;4.250;2023-03-04T04:36:05;102224.19;;;8.06;61.72
13593;BME280;6867;50.998;4.250;2023-03-04T04:38:32;102228.09;;;8.11;62.21
13593;BME280;6867;50.998;4.250;2023-03-04T04:40:59;102239.41;;;8.05;62.32
13593;BME280;6867;50.998;4.250;2023-03-04T04:43:26;102233.53;;;8.02;62.81
13593;BME280;6867;50.998;4.250;2023-03-04T04:45:54;102247.59;;;8.04;62.68
13593;BME280;6867;50.998;4.250;2023-03-04T04:48:21;102246.06;;;8.01;62.42
13593;BME280;6867;50.998;4.250;2023-03-04T04:50:53;102249.44;;;8.03;62.94
13593;BME280;6867;50.998;4.250;2023-03-04T04:53:20;102254.38;;;7.98;62.79
13593;BME280;6867;50.998;4.250;2023-03-04T04:55:47;102260.28;;;8.02;62.67
13593;BME280;6867;50.998;4.250;2023-03-04T04:58:13;102259.91;;;7.96;63.34
13593;BME280;6867;50.998;4.250;2023-03-04T05:00:40;102257.78;;;8.00;63.20
13593;BME280;6867;50.998;4.250;2023-03-04T05:03:08;102257.88;;;7.90;63.31
13593;BME280;6867;50.998;4.250;2023-03-04T05:05:35;102250.88;;;7.97;63.18
13593;BME280;6867;50.998;4.250;2023-03-04T05:08:01;102252.41;;;8.00;62.85
13593;BME280;6867;50.998;4.250;2023-03-04T05:10:28;102253.00;;;7.94;63.24
13593;BME280;6867;50.998;4.250;2023-03-04T05:12:55;102250.56;;;8.01;63.38
13593;BME280;6867;50.998;4.250;2023-03-04T05:15:22;102259.38;;;7.93;63.53
13593;BME280;6867;50.998;4.250;2023-03-04T05:17:49;102266.09;;;7.97;63.80
13593;BME280;6867;50.998;4.250;2023-03-04T05:20:18;102274.00;;;7.98;63.05
13593;BME280;6867;50.998;4.250;2023-03-04T05:22:45;102271.63;;;7.95;63.41
13593;BME280;6867;50.998;4.250;2023-03-04T05:25:11;102267.09;;;7.96;63.94
13593;BME280;6867;50.998;4.250;2023-03-04T05:27:38;102277.25;;;7.92;64.11
13593;BME280;6867;50.998;4.250;2023-03-04T05:30:06;102267.63;;;7.99;63.94
13593;BME280;6867;50.998;4.250;2023-03-04T05:32:33;102266.81;;;7.99;63.41
13593;BME280;6867;50.998;4.250;2023-03-04T05:34:59;102262.59;;;7.96;63.46
13593;BME280;6867;50.998;4.250;2023-03-04T05:37:27;102275.38;;;8.03;63.63
13593;BME280;6867;50.998;4.250;2023-03-04T05:39:54;102261.28;;;8.01;63.64
13593;BME280;6867;50.998;4.250;2023-03-04T05:42:21;102267.63;;;7.99;63.90
13593;BME280;6867;50.998;4.250;2023-03-04T05:44:48;102274.66;;;8.01;63.60
13593;BME280;6867;50.998;4.250;2023-03-04T05:47:14;102274.13;;;7.97;64.17
13593;BME280;6867;50.998;4.250;2023-03-04T05:49:41;102268.47;;;8.00;63.68
13593;BME280;6867;50.998;4.250;2023-03-04T05:52:09;102273.53;;;8.03;64.58
13593;BME280;6867;50.998;4.250;2023-03-04T05:54:37;102274.88;;;7.89;64.52
13593;BME280;6867;50.998;4.250;2023-03-04T05:57:03;102264.66;;;7.85;64.05
13593;BME280;6867;50.998;4.250;2023-03-04T05:59:30;102260.84;;;7.87;64.15
13593;BME280;6867;50.998;4.250;2023-03-04T06:01:57;102251.88;;;7.96;63.58
13593;BME280;6867;50.998;4.250;2023-03-04T06:04:24;102234.53;;;7.83;63.28
13593;BME280;6867;50.998;4.250;2023-03-04T06:06:50;102231.03;;;7.82;63.16
13593;BME280;6867;50.998;4.250;2023-03-04T06:09:17;102222.38;;;7.88;62.75
13593;BME280;6867;50.998;4.250;2023-03-04T06:11:46;102220.59;;;7.97;62.96
13593;BME280;6867;50.998;4.250;2023-03-04T06:14:13;102222.38;;;7.88;62.67
13593;BME280;6867;50.998;4.250;2023-03-04T06:16:42;102205.06;;;7.74;62.27
13593;BME280;6867;50.998;4.250;2023-03-04T06:19:09;102211.59;;;7.80;62.68
13593;BME280;6867;50.998;4.250;2023-03-04T06:21:36;102211.84;;;7.87;62.31
13593;BME280;6867;50.998;4.250;2023-03-04T06:24:03;102212.38;;;7.72;62.60
13593;BME280;6867;50.998;4.250;2023-03-04T06:26:30;102213.16;;;7.83;62.49
13593;BME280;6867;50.998;4.250;2023-03-04T06:28:58;102208.81;;;7.82;61.89
13593;BME280;6867;50.998;4.250;2023-03-04T06:31:24;102191.66;;;7.92;61.27
13593;BME280;6867;50.998;4.250;2023-03-04T06:33:51;102203.88;;;7.95;61.40
13593;BME280;6867;50.998;4.250;2023-03-04T06:36:18;102203.59;;;7.80;61.52
13593;BME280;6867;50.998;4.250;2023-03-04T06:38:45;102189.19;;;7.81;61.51
13593;BME280;6867;50.998;4.250;2023-03-04T06:41:12;102187.72;;;8.05;60.70
13593;BME280;6867;50.998;4.250;2023-03-04T06:43:39;102194.75;;;8.06;61.14
13593;BME280;6867;50.998;4.250;2023-03-04T06:46:08;102195.50;;;8.16;60.81
13593;BME280;6867;50.998;4.250;2023-03-04T06:48:35;102180.41;;;7.89;61.10
13593;BME280;6867;50.998;4.250;2023-03-04T06:51:04;102191.34;;;7.95;61.07
13593;BME280;6867;50.998;4.250;2023-03-04T06:53:32;102168.75;;;7.98;59.90
13593;BME280;6867;50.998;4.250;2023-03-04T06:55:58;102173.69;;;7.85;60.72
13593;BME280;6867;50.998;4.250;2023-03-04T06:58:25;102176.72;;;8.08;60.50
13593;BME280;6867;50.998;4.250;2023-03-04T07:00:52;102175.13;;;7.97;60.74
13593;BME280;6867;50.998;4.250;2023-03-04T07:03:20;102190.50;;;8.21;60.10
13593;BME280;6867;50.998;4.250;2023-03-04T07:05:46;102191.53;;;8.02;60.74
13593;BME280;6867;50.998;4.250;2023-03-04T07:08:13;102196.03;;;8.19;60.16
13593;BME280;6867;50.998;4.250;2023-03-04T07:10:40;102179.44;;;8.16;60.17
13593;BME280;6867;50.998;4.250;2023-03-04T07:13:07;102193.66;;;8.16;60.48
13593;BME280;6867;50.998;4.250;2023-03-04T07:15:33;102178.81;;;8.22;60.15
13593;BME280;6867;50.998;4.250;2023-03-04T07:18:00;102202.91;;;8.22;59.77
13593;BME280;6867;50.998;4.250;2023-03-04T07:20:28;102203.31;;;8.09;60.27
13593;BME280;6867;50.998;4.250;2023-03-04T07:22:55;102206.94;;;8.26;60.06
13593;BME280;6867;50.998;4.250;2023-03-04T07:25:21;102210.25;;;8.20;60.74
13593;BME280;6867;50.998;4.250;2023-03-04T07:27:48;102211.50;;;8.34;60.03
13593;BME280;6867;50.998;4.250;2023-03-04T07:30:15;102223.44;;;8.39;60.00
13593;BME280;6867;50.998;4.250;2023-03-04T07:32:42;102233.00;;;8.42;60.28
13593;BME280;6867;50.998;4.250;2023-03-04T07:35:09;102223.50;;;8.47;60.58
13593;BME280;6867;50.998;4.250;2023-03-04T07:37:37;102222.84;;;8.45;60.20
13593;BME280;6867;50.998;4.250;2023-03-04T07:40:05;102214.50;;;8.48;59.91
13593;BME280;6867;50.998;4.250;2023-03-04T07:42:33;102234.56;;;8.53;60.17
13593;BME280;6867;50.998;4.250;2023-03-04T07:45:00;102249.66;;;8.54;60.49
13593;BME280;6867;50.998;4.250;2023-03-04T07:47:27;102247.97;;;8.53;61.08
13593;BME280;6867;50.998;4.250;2023-03-04T07:49:53;102256.63;;;8.46;60.70
13593;BME280;6867;50.998;4.250;2023-03-04T07:52:21;102271.16;;;8.44;60.92
13593;BME280;6867;50.998;4.250;2023-03-04T07:54:49;102277.91;;;8.30;60.98
13593;BME280;6867;50.998;4.250;2023-03-04T07:57:16;102271.50;;;8.41;60.96
13593;BME280;6867;50.998;4.250;2023-03-04T07:59:43;102262.34;;;8.52;60.39
13593;BME280;6867;50.998;4.250;2023-03-04T08:02:10;102254.13;;;8.71;60.07
13593;BME280;6867;50.998;4.250;2023-03-04T08:04:36;102260.09;;;8.65;60.40
13593;BME280;6867;50.998;4.250;2023-03-04T08:07:03;102285.63;;;8.77;60.25
13593;BME280;6867;50.998;4.250;2023-03-04T08:09:30;102283.28;;;8.74;59.93
13593;BME280;6867;50.998;4.250;2023-03-04T08:11:58;102277.09;;;8.82;59.85
13593;BME280;6867;50.998;4.250;2023-03-04T08:14:24;102277.78;;;8.84;59.91
13593;BME280;6867;50.998;4.250;2023-03-04T08:16:51;102288.59;;;9.00;60.51
13593;BME280;6867;50.998;4.250;2023-03-04T08:19:18;102284.16;;;8.83;60.72
13593;BME280;6867;50.998;4.250;2023-03-04T08:21:44;102307.78;;;8.87;61.07
13593;BME280;6867;50.998;4.250;2023-03-04T08:24:11;102302.47;;;8.95;60.78
13593;BME280;6867;50.998;4.250;2023-03-04T08:26:40;102296.28;;;8.95;60.67
13593;BME280;6867;50.998;4.250;2023-03-04T08:29:10;102291.94;;;9.02;60.07
13593;BME280;6867;50.998;4.250;2023-03-04T08:31:37;102306.75;;;8.80;61.25
13593;BME280;6867;50.998;4.250;2023-03-04T08:34:05;102312.41;;;9.03;60.37
13593;BME280;6867;50.998;4.250;2023-03-04T08:36:34;102281.00;;;8.87;61.04
13593;BME280;6867;50.998;4.250;2023-03-04T08:39:02;102286.09;;;9.07;59.43
13593;BME280;6867;50.998;4.250;2023-03-04T08:41:29;102269.28;;;8.88;60.29
13593;BME280;6867;50.998;4.250;2023-03-04T08:43:56;102266.94;;;8.93;59.95
13593;BME280;6867;50.998;4.250;2023-03-04T08:46:24;102235.13;;;8.64;59.54
13593;BME280;6867;50.998;4.250;2023-03-04T08:48:51;102255.75;;;8.98;59.28
13593;BME280;6867;50.998;4.250;2023-03-04T08:51:18;102231.22;;;8.85;59.32
13593;BME280;6867;50.998;4.250;2023-03-04T08:53:44;102249.03;;;8.94;59.75
13593;BME280;6867;50.998;4.250;2023-03-04T08:56:12;102233.78;;;8.86;58.46
13593;BME280;6867;50.998;4.250;2023-03-04T08:58:39;102238.44;;;8.84;59.22
13593;BME280;6867;50.998;4.250;2023-03-04T09:01:07;102255.47;;;8.75;59.64
13593;BME280;6867;50.998;4.250;2023-03-04T09:03:36;102247.59;;;9.08;59.33
13593;BME280;6867;50.998;4.250;2023-03-04T09:06:04;102262.16;;;8.71;59.50
13593;BME280;6867;50.998;4.250;2023-03-04T09:08:31;102261.69;;;8.50;59.60
13593;BME280;6867;50.998;4.250;2023-03-04T09:10:59;102276.56;;;8.70;60.08
13593;BME280;6867;50.998;4.250;2023-03-04T09:13:27;102292.47;;;9.06;59.78
13593;BME280;6867;50.998;4.250;2023-03-04T09:15:54;102269.03;;;9.08;59.87
13593;BME280;6867;50.998;4.250;2023-03-04T09:18:22;102302.81;;;9.35;59.69
13593;BME280;6867;50.998;4.250;2023-03-04T09:20:50;102299.44;;;8.90;60.73
13593;BME280;6867;50.998;4.250;2023-03-04T09:23:17;102293.19;;;9.16;59.85
13593;BME280;6867;50.998;4.250;2023-03-04T09:25:46;102306.00;;;9.38;60.40
13593;BME280;6867;50.998;4.250;2023-03-04T09:28:14;102291.94;;;9.44;60.07
13593;BME280;6867;50.998;4.250;2023-03-04T09:30:41;102313.13;;;9.64;60.31
13593;BME280;6867;50.998;4.250;2023-03-04T09:33:08;102297.75;;;9.74;60.13
13593;BME280;6867;50.998;4.250;2023-03-04T09:35:35;102289.69;;;9.74;59.69
13593;BME280;6867;50.998;4.250;2023-03-04T09:38:03;102273.38;;;9.59;59.67
13593;BME280;6867;50.998;4.250;2023-03-04T09:40:32;102264.16;;;9.54;59.46
13593;BME280;6867;50.998;4.250;2023-03-04T09:43:04;102260.34;;;9.89;58.52
13593;BME280;6867;50.998;4.250;2023-03-04T09:45:36;102275.28;;;9.91;59.45
13593;BME280;6867;50.998;4.250;2023-03-04T09:48:05;102254.66;;;10.25;58.12
13593;BME280;6867;50.998;4.250;2023-03-04T09:50:33;102246.72;;;10.15;58.50
13593;BME280;6867;50.998;4.250;2023-03-04T09:53:15;102248.56;;;9.65;58.56
13593;BME280;6867;50.998;4.250;2023-03-04T09:55:48;102249.28;;;9.92;58.60
13593;BME280;6867;50.998;4.250;2023-03-04T09:58:26;102222.25;;;10.34;57.60
13593;BME280;6867;50.998;4.250;2023-03-04T10:01:02;102219.75;;;10.25;57.43
13593;BME280;6867;50.998;4.250;2023-03-04T10:03:40;102419.50;;;10.97;61.50
13593;BME280;6867;50.998;4.250;2023-03-04T10:06:10;102251.44;;;11.01;57.58
13593;BME280;6867;50.998;4.250;2023-03-04T10:08:49;102242.91;;;10.89;57.71
13593;BME280;6867;50.998;4.250;2023-03-04T10:11:23;102192.91;;;10.80;56.28
13593;BME280;6867;50.998;4.250;2023-03-04T10:14:00;102181.47;;;10.31;57.32
13593;BME280;6867;50.998;4.250;2023-03-04T10:16:31;102208.81;;;10.34;57.21
13593;BME280;6867;50.998;4.250;2023-03-04T10:19:10;102224.59;;;10.05;58.06
13593;BME280;6867;50.998;4.250;2023-03-04T10:21:43;102206.00;;;9.87;57.73
13593;BME280;6867;50.998;4.250;2023-03-04T10:24:14;102227.28;;;10.05;57.88
13593;BME280;6867;50.998;4.250;2023-03-04T10:26:44;102232.69;;;10.29;58.03
13593;BME280;6867;50.998;4.250;2023-03-04T10:29:13;102241.88;;;10.18;58.22
13593;BME280;6867;50.998;4.250;2023-03-04T10:31:41;102227.06;;;10.55;57.62
13593;BME280;6867;50.998;4.250;2023-03-04T10:34:09;102200.69;;;10.59;56.53
13593;BME280;6867;50.998;4.250;2023-03-04T10:36:52;102235.84;;;10.41;57.09
13593;BME280;6867;50.998;4.250;2023-03-04T10:39:25;102235.75;;;10.73;57.09
13593;BME280;6867;50.998;4.250;2023-03-04T10:41:56;102221.19;;;10.99;56.32
13593;BME280;6867;50.998;4.250;2023-03-04T10:44:23;102188.63;;;11.25;55.69
13593;BME280;6867;50.998;4.250;2023-03-04T10:46:52;102185.75;;;10.56;56.74
13593;BME280;6867;50.998;4.250;2023-03-04T10:49:21;102226.13;;;10.87;56.96
13593;BME280;6867;50.998;4.250;2023-03-04T10:51:51;102190.56;;;10.69;56.25
13593;BME280;6867;50.998;4.250;2023-03-04T10:54:28;102176.34;;;11.00;55.88
13593;BME280;6867;50.998;4.250;2023-03-04T10:56:58;102178.72;;;11.48;55.46
13593;BME280;6867;50.998;4.250;2023-03-04T10:59:46;102176.84;;;11.49;55.17
13593;BME280;6867;50.998;4.250;2023-03-04T11:02:19;102158.38;;;11.23;54.88
13593;BME280;6867;50.998;4.250;2023-03-04T11:04:52;102172.16;;;11.20;55.72
13593;BME280;6867;50.998;4.250;2023-03-04T11:07:20;102159.25;;;10.92;55.15
13593;BME280;6867;50.998;4.250;2023-03-04T11:09:48;102143.91;;;11.24;55.04
13593;BME280;6867;50.998;4.250;2023-03-04T11:12:17;102158.47;;;11.38;55.00
13593;BME280;6867;50.998;4.250;2023-03-04T11:14:46;102143.69;;;11.34;54.39
13593;BME280;6867;50.998;4.250;2023-03-04T11:17:20;102126.72;;;11.33;54.32
13593;BME280;6867;50.998;4.250;2023-03-04T11:19:53;102126.44;;;12.04;53.80
13593;BME280;6867;50.998;4.250;2023-03-04T11:22:22;102076.09;;;11.89;52.83
13593;BME280;6867;50.998;4.250;2023-03-04T11:24:56;102101.09;;;12.13;52.82
13593;BME280;6867;50.998;4.250;2023-03-04T11:27:29;102101.09;;;11.60;53.46
13593;BME280;6867;50.998;4.250;2023-03-04T11:30:23;102087.41;;;12.00;52.94
13593;BME280;6867;50.998;4.250;2023-03-04T11:32:54;102081.13;;;12.22;52.72
13593;BME280;6867;50.998;4.250;2023-03-04T11:35:26;102053.06;;;12.31;51.76
13593;BME280;6867;50.998;4.250;2023-03-04T11:38:00;102057.03;;;12.50;51.80
13593;BME280;6867;50.998;4.250;2023-03-04T11:40:34;102032.66;;;12.58;51.25
13593;BME280;6867;50.998;4.250;2023-03-04T11:43:04;102053.56;;;12.05;52.13
13593;BME280;6867;50.998;4.250;2023-03-04T11:45:50;102042.19;;;12.25;52.14
13593;BME280;6867;50.998;4.250;2023-03-04T11:48:31;102033.38;;;12.16;51.97
13593;BME280;6867;50.998;4.250;2023-03-04T11:51:06;102029.69;;;12.17;51.88
13593;BME280;6867;50.998;4.250;2023-03-04T11:53:43;102015.94;;;11.97;52.04
13593;BME280;6867;50.998;4.250;2023-03-04T11:56:30;102026.19;;;11.79;52.49
13593;BME280;6867;50.998;4.250;2023-03-04T11:59:15;102030.53;;;11.88;52.23
13593;BME280;6867;50.998;4.250;2023-03-04T12:01:50;102057.81;;;12.00;52.68
13593;BME280;6867;50.998;4.250;2023-03-04T12:04:31;102012.84;;;12.15;51.83
13593;BME280;6867;50.998;4.250;2023-03-04T12:07:13;102037.44;;;12.78;51.65
13593;BME280;6867;50.998;4.250;2023-03-04T12:09:55;102007.38;;;13.24;50.33
13593;BME280;6867;50.998;4.250;2023-03-04T12:12:39;101981.31;;;13.65;49.41
13593;BME280;6867;50.998;4.250;2023-03-04T12:15:16;101952.44;;;13.31;49.27
13593;BME280;6867;50.998;4.250;2023-03-04T12:18:04;101951.66;;;12.66;50.69
13593;BME280;6867;50.998;4.250;2023-03-04T12:23:55;101992.28;;;12.43;51.44
13593;BME280;6867;50.998;4.250;2023-03-04T12:26:33;102003.78;;;12.74;51.26
13593;BME280;6867;50.998;4.250;2023-03-04T12:29:06;101986.97;;;12.93;50.64
13593;BME280;6867;50.998;4.250;2023-03-04T12:31:38;102097.34;;;13.31;52.40
13593;BME280;6867;50.998;4.250;2023-03-04T12:37:19;101946.00;;;13.04;49.84
13593;BME280;6867;50.998;4.250;2023-03-04T12:40:07;101919.25;;;12.81;50.10
13593;BME280;6867;50.998;4.250;2023-03-04T12:42:50;101951.28;;;12.69;50.67
13593;BME280;6867;50.998;4.250;2023-03-04T12:45:27;101958.00;;;13.02;50.56
13593;BME280;6867;50.998;4.250;2023-03-04T12:48:01;101960.41;;;12.68;50.68
13593;BME280;6867;50.998;4.250;2023-03-04T12:50:38;101981.91;;;12.26;51.93
13593;BME280;6867;50.998;4.250;2023-03-04T12:53:14;102015.34;;;11.72;53.22
13593;BME280;6867;50.998;4.250;2023-03-04T12:55:45;102002.91;;;11.71;53.03
13593;BME280;6867;50.998;4.250;2023-03-04T12:58:15;102051.19;;;11.72;53.64
13593;BME280;6867;50.998;4.250;2023-03-04T13:00:54;102045.53;;;12.12;53.39
13593;BME280;6867;50.998;4.250;2023-03-04T13:03:30;102048.97;;;12.35;53.20
13593;BME280;6867;50.998;4.250;2023-03-04T13:06:11;102039.16;;;11.98;53.74
13593;BME280;6867;50.998;4.250;2023-03-04T13:08:50;102056.69;;;12.38;53.43
13593;BME280;6867;50.998;4.250;2023-03-04T13:11:44;102076.28;;;12.32;53.78
13593;BME280;6867;50.998;4.250;2023-03-04T13:14:29;102050.47;;;12.23;54.11
13593;BME280;6867;50.998;4.250;2023-03-04T13:16:58;102036.25;;;12.14;53.91
13593;BME280;6867;50.998;4.250;2023-03-04T13:19:49;102074.03;;;12.36;54.09
13593;BME280;6867;50.998;4.250;2023-03-04T13:22:32;102092.19;;;12.12;54.98
13593;BME280;6867;50.998;4.250;2023-03-04T13:25:31;102093.97;;;11.82;55.49
13593;BME280;6867;50.998;4.250;2023-03-04T13:28:20;102114.88;;;11.80;56.08